Time;durP1;ratioP1;P1;durP2;ratioP2;P2;SDS_P1;SDS_P2;PMS_P1;PMS_P2;Temp;Humidity;BMP_temperature;BMP_pressure;BME280_temperature;BME280_humidity;BME280_pressure;Samples;Min_cycle;Max_cycle;Signal;HPM_P1;HPM_P2
2022/03/13 00:02:16;;;;;;;14.23;9.88;;;11.20;66.10;;;;;;5027681;28;20049;-65
2022/03/13 00:04:49;;;;;;;14.93;9.60;;;11.20;65.80;;;;;;5026091;28;20574;-65
2022/03/13 00:07:19;;;;;;;14.30;9.15;;;11.20;66.40;;;;;;5028360;28;20034;-65
2022/03/13 00:09:52;;;;;;;19.85;10.48;;;11.20;66.00;;;;;;5028648;28;20500;-65
2022/03/13 00:12:31;;;;;;;17.17;10.77;;;11.20;65.80;;;;;;5028420;28;20661;-66
2022/03/13 00:14:58;;;;;;;14.47;9.70;;;11.20;65.90;;;;;;5028443;28;20049;-65
2022/03/13 00:17:27;;;;;;;14.13;9.57;;;11.20;65.70;;;;;;5026462;28;20083;-65
2022/03/13 00:19:55;;;;;;;15.00;10.07;;;11.20;65.50;;;;;;5028712;28;20030;-65
2022/03/13 00:22:20;;;;;;;13.32;9.55;;;11.20;65.80;;;;;;5010444;28;20030;-65
2022/03/13 00:24:46;;;;;;;12.45;9.65;;;11.20;65.90;;;;;;5028354;28;20025;-65
2022/03/13 00:27:11;;;;;;;12.70;9.13;;;11.20;65.70;;;;;;5028352;28;20034;-65
2022/03/13 00:29:37;;;;;;;13.73;9.32;;;11.20;65.60;;;;;;5025467;28;20064;-66
2022/03/13 00:32:03;;;;;;;11.57;8.50;;;11.20;65.50;;;;;;5025450;28;20026;-65
2022/03/13 00:34:29;;;;;;;12.25;8.63;;;11.30;65.80;;;;;;5027512;28;20508;-65
2022/03/13 00:36:54;;;;;;;12.45;8.40;;;11.30;66.40;;;;;;5028127;28;20025;-65
2022/03/13 00:39:20;;;;;;;11.10;8.75;;;11.30;66.10;;;;;;5027907;28;20021;-65
2022/03/13 00:41:46;;;;;;;12.50;8.73;;;11.30;66.10;;;;;;5028360;28;20029;-65
2022/03/13 00:44:12;;;;;;;10.25;8.07;;;11.20;66.60;;;;;;5028258;28;20020;-66
2022/03/13 00:46:38;;;;;;;13.38;8.88;;;11.20;67.10;;;;;;5025269;28;20024;-65
2022/03/13 00:49:04;;;;;;;12.57;8.55;;;11.20;67.00;;;;;;5028098;28;20025;-65
2022/03/13 00:51:30;;;;;;;12.77;8.75;;;11.20;66.80;;;;;;5010189;28;20485;-66
2022/03/13 00:53:55;;;;;;;12.90;9.15;;;11.20;66.90;;;;;;5028012;28;20060;-66
2022/03/13 00:56:21;;;;;;;13.80;9.50;;;11.20;66.90;;;;;;5009954;28;20526;-65
2022/03/13 00:58:46;;;;;;;11.98;9.15;;;11.10;66.90;;;;;;5027912;28;20052;-65
2022/03/13 01:01:12;;;;;;;11.70;8.88;;;11.10;67.00;;;;;;5027935;28;20028;-65
2022/03/13 01:03:38;;;;;;;14.05;9.15;;;11.10;67.00;;;;;;5027790;28;20167;-67
2022/03/13 01:06:05;;;;;;;12.07;8.68;;;11.10;67.20;;;;;;5027948;28;20104;-66
2022/03/13 01:08:30;;;;;;;17.13;10.23;;;11.10;67.30;;;;;;5027779;28;20025;-66
2022/03/13 01:10:57;;;;;;;13.02;9.60;;;11.10;66.90;;;;;;5027846;28;20029;-65
2022/03/13 01:13:23;;;;;;;11.55;7.57;;;11.10;66.60;;;;;;5027897;28;20481;-65
2022/03/13 01:15:49;;;;;;;12.00;9.57;;;11.10;66.90;;;;;;5027592;28;20029;-65
2022/03/13 01:18:16;;;;;;;12.32;9.13;;;11.20;66.90;;;;;;5027850;28;20111;-66
2022/03/13 01:20:46;;;;;;;11.82;8.70;;;11.20;66.90;;;;;;5027743;28;20032;-65
2022/03/13 01:23:11;;;;;;;13.35;9.93;;;11.20;67.00;;;;;;5025144;28;20480;-65
2022/03/13 01:25:39;;;;;;;13.77;9.90;;;11.10;66.60;;;;;;5027651;28;20075;-66
2022/03/13 01:28:04;;;;;;;13.10;10.68;;;11.10;67.00;;;;;;5027706;28;20084;-66
2022/03/13 01:30:30;;;;;;;13.30;10.20;;;11.10;66.70;;;;;;5028153;28;20420;-65
2022/03/13 01:32:56;;;;;;;14.88;10.00;;;11.10;66.70;;;;;;5010126;28;20030;-66
2022/03/13 01:35:23;;;;;;;18.98;11.68;;;11.10;66.70;;;;;;5027502;28;20028;-65
2022/03/13 01:37:49;;;;;;;14.60;11.13;;;11.00;67.00;;;;;;5022232;28;20515;-65
2022/03/13 01:40:23;;;;;;;13.07;10.00;;;11.00;67.10;;;;;;5027661;28;20029;-65
2022/03/13 01:42:50;;;;;;;14.63;11.10;;;11.00;67.10;;;;;;5027512;28;20556;-66
2022/03/13 01:45:18;;;;;;;15.73;10.65;;;10.90;67.30;;;;;;5028888;28;20037;-66
2022/03/13 01:47:44;;;;;;;14.90;10.38;;;10.90;67.40;;;;;;5031374;28;20450;-66
2022/03/13 01:50:11;;;;;;;14.63;10.77;;;10.90;67.80;;;;;;5028533;28;20025;-65
2022/03/13 01:52:39;;;;;;;15.10;10.48;;;10.80;67.70;;;;;;5030931;28;20052;-65
2022/03/13 01:55:06;;;;;;;16.58;10.48;;;10.80;67.80;;;;;;5031297;28;20095;-66
2022/03/13 01:57:32;;;;;;;15.40;9.68;;;10.80;67.70;;;;;;5031048;28;20037;-65
2022/03/13 01:59:59;;;;;;;16.05;11.85;;;10.90;67.60;;;;;;5030929;28;20659;-65
2022/03/13 02:02:28;;;;;;;15.45;11.70;;;10.90;67.60;;;;;;5013353;28;20041;-65
2022/03/13 02:04:55;;;;;;;16.27;11.65;;;10.80;67.50;;;;;;5028210;28;20030;-65
2022/03/13 02:07:21;;;;;;;18.65;11.10;;;10.80;67.60;;;;;;5027851;28;20022;-65
2022/03/13 02:09:48;;;;;;;14.52;11.38;;;10.80;67.80;;;;;;5030974;28;20029;-65
2022/03/13 02:12:17;;;;;;;15.43;11.63;;;10.80;67.90;;;;;;5030757;28;20026;-65
2022/03/13 02:14:43;;;;;;;16.48;11.85;;;10.80;68.00;;;;;;5028891;28;20034;-65
2022/03/13 02:17:08;;;;;;;17.33;12.05;;;10.80;68.10;;;;;;5027978;28;20028;-65
2022/03/13 02:19:34;;;;;;;16.50;12.30;;;10.70;69.00;;;;;;5030743;28;20056;-65
2022/03/13 02:22:00;;;;;;;19.13;13.38;;;10.70;68.50;;;;;;5024978;28;20104;-65
2022/03/13 02:24:28;;;;;;;17.10;11.65;;;10.60;68.70;;;;;;5030617;28;20455;-66
2022/03/13 02:27:05;;;;;;;16.25;12.30;;;10.60;68.80;;;;;;5030462;28;20029;-65
2022/03/13 02:29:31;;;;;;;17.27;11.40;;;10.60;68.90;;;;;;5028678;28;20407;-65
2022/03/13 02:31:59;;;;;;;14.90;11.45;;;10.60;69.00;;;;;;5030788;28;20026;-65
2022/03/13 02:34:25;;;;;;;16.75;12.40;;;10.60;68.90;;;;;;5009912;28;20499;-65
2022/03/13 02:36:50;;;;;;;16.92;12.70;;;10.50;69.00;;;;;;5030164;28;20021;-65
2022/03/13 02:39:17;;;;;;;15.20;11.70;;;10.50;69.30;;;;;;5030200;28;20029;-65
2022/03/13 02:41:43;;;;;;;18.23;13.18;;;10.40;69.80;;;;;;5024743;28;20080;-65
2022/03/13 02:44:11;;;;;;;19.70;12.95;;;10.40;69.80;;;;;;5030232;28;20022;-66
2022/03/13 02:46:46;;;;;;;20.20;13.15;;;10.30;69.70;;;;;;5030048;28;20120;-65
2022/03/13 02:49:22;;;;;;;19.40;13.32;;;10.30;69.60;;;;;;5025538;28;20029;-66
2022/03/13 02:51:51;;;;;;;18.58;13.10;;;10.30;70.00;;;;;;5027899;28;20022;-65
2022/03/13 02:54:17;;;;;;;17.35;13.20;;;10.20;69.90;;;;;;5024461;28;20041;-65
2022/03/13 02:56:44;;;;;;;16.80;12.85;;;10.20;69.90;;;;;;5011225;28;20029;-65
2022/03/13 02:59:10;;;;;;;16.98;12.95;;;10.30;69.90;;;;;;5030006;28;20353;-65
2022/03/13 03:01:37;;;;;;;17.55;12.77;;;10.30;69.80;;;;;;5011957;28;20021;-65
2022/03/13 03:04:03;;;;;;;15.95;12.35;;;10.30;69.90;;;;;;5026987;28;20442;-65
2022/03/13 03:06:30;;;;;;;18.25;12.00;;;10.30;69.90;;;;;;5029662;28;20033;-65
2022/03/13 03:08:56;;;;;;;15.20;11.48;;;10.30;70.00;;;;;;5029874;28;20029;-65
2022/03/13 03:11:22;;;;;;;20.50;13.23;;;10.20;70.50;;;;;;5029719;28;20018;-65
2022/03/13 03:13:48;;;;;;;17.67;12.70;;;10.20;69.80;;;;;;5029611;28;20618;-66
2022/03/13 03:16:14;;;;;;;18.13;13.05;;;10.20;70.00;;;;;;5027356;28;20115;-65
2022/03/13 03:18:40;;;;;;;17.67;12.02;;;10.20;70.10;;;;;;5028646;28;20100;-65
2022/03/13 03:21:05;;;;;;;18.42;12.80;;;10.20;70.30;;;;;;5030454;28;20026;-65
2022/03/13 03:23:31;;;;;;;18.20;13.05;;;10.10;70.40;;;;;;5029470;28;20017;-65
2022/03/13 03:25:57;;;;;;;17.27;12.90;;;10.10;70.60;;;;;;5029553;28;20033;-65
2022/03/13 03:28:22;;;;;;;16.33;12.30;;;10.10;70.80;;;;;;5026659;28;20029;-65
2022/03/13 03:30:48;;;;;;;19.27;11.95;;;10.00;70.90;;;;;;5029528;28;20196;-65
2022/03/13 03:33:14;;;;;;;16.67;11.73;;;10.00;70.80;;;;;;5029479;28;20476;-65
2022/03/13 03:35:40;;;;;;;16.13;12.13;;;10.10;70.60;;;;;;5011274;28;20032;-66
2022/03/13 03:38:06;;;;;;;14.90;11.65;;;10.10;70.50;;;;;;5029279;28;20037;-65
2022/03/13 03:40:34;;;;;;;20.88;14.27;;;10.10;71.00;;;;;;5029125;28;20363;-66
2022/03/13 03:43:04;;;;;;;20.23;13.68;;;10.00;69.90;;;;;;5029163;28;20532;-65
2022/03/13 03:45:31;;;;;;;20.90;15.90;;;10.00;69.60;;;;;;5029517;28;20170;-66
2022/03/13 03:47:57;;;;;;;21.30;15.18;;;10.00;69.30;;;;;;5028887;28;20029;-66
2022/03/13 03:50:23;;;;;;;21.95;16.90;;;9.90;69.00;;;;;;5029076;28;20109;-66
2022/03/13 03:52:50;;;;;;;20.63;14.75;;;9.80;69.10;;;;;;5028981;28;20132;-65
2022/03/13 03:55:16;;;;;;;21.50;15.90;;;9.80;69.00;;;;;;5026216;28;20017;-65
2022/03/13 03:57:42;;;;;;;23.33;16.63;;;9.70;69.00;;;;;;5028762;28;20087;-66
2022/03/13 04:00:08;;;;;;;21.52;16.15;;;9.70;69.00;;;;;;5011087;28;20397;-66
2022/03/13 04:02:34;;;;;;;22.92;17.27;;;9.70;69.20;;;;;;5028757;28;20029;-65
2022/03/13 04:05:01;;;;;;;24.98;17.67;;;9.60;69.10;;;;;;5028544;28;20030;-65
2022/03/13 04:07:27;;;;;;;22.70;16.58;;;9.60;69.30;;;;;;5028464;28;20104;-65
2022/03/13 04:09:52;;;;;;;21.58;15.57;;;9.50;69.30;;;;;;5025987;28;20037;-65
2022/03/13 04:12:18;;;;;;;23.02;16.80;;;9.50;69.40;;;;;;5026140;28;20029;-65
2022/03/13 04:14:44;;;;;;;23.35;16.52;;;9.50;69.30;;;;;;5026183;28;20155;-66
2022/03/13 04:17:10;;;;;;;23.13;17.00;;;9.50;69.40;;;;;;5026847;28;20021;-65
2022/03/13 04:19:35;;;;;;;24.90;17.77;;;9.40;69.30;;;;;;5027619;28;20025;-65
2022/03/13 04:22:01;;;;;;;24.23;17.10;;;9.40;69.30;;;;;;5028268;28;20420;-66
2022/03/13 04:24:29;;;;;;;21.90;16.17;;;9.30;69.90;;;;;;5026055;28;20032;-66
2022/03/13 04:26:56;;;;;;;24.60;18.20;;;9.30;69.00;;;;;;5026008;28;20025;-65
2022/03/13 04:29:23;;;;;;;22.67;16.75;;;9.30;68.80;;;;;;5028194;28;20497;-65
2022/03/13 04:31:49;;;;;;;21.50;15.70;;;9.30;68.70;;;;;;5028071;28;20064;-65
2022/03/13 04:34:16;;;;;;;24.38;17.27;;;9.30;68.80;;;;;;5025711;28;20092;-65
2022/03/13 04:36:44;;;;;;;20.58;16.23;;;9.30;68.90;;;;;;5013268;28;20112;-65
2022/03/13 04:39:09;;;;;;;24.08;17.95;;;9.30;68.80;;;;;;5028286;28;20029;-65
2022/03/13 04:41:37;;;;;;;22.48;15.95;;;9.20;69.10;;;;;;5010444;28;20037;-66
2022/03/13 04:44:04;;;;;;;23.55;17.05;;;9.20;69.20;;;;;;5028042;28;20017;-66
2022/03/13 04:46:30;;;;;;;20.52;15.55;;;9.20;68.80;;;;;;5027915;28;20554;-67
2022/03/13 04:48:57;;;;;;;24.85;16.63;;;9.10;69.30;;;;;;5027988;28;20021;-66
2022/03/13 04:51:23;;;;;;;22.15;16.42;;;9.10;69.20;;;;;;5022520;28;20466;-66
2022/03/13 04:53:48;;;;;;;22.40;16.60;;;9.10;68.90;;;;;;5026526;28;20057;-66
2022/03/13 04:56:14;;;;;;;20.55;15.40;;;9.10;68.70;;;;;;5026759;28;20021;-67
2022/03/13 04:58:40;;;;;;;21.98;16.52;;;9.10;68.50;;;;;;5007289;28;20461;-66
2022/03/13 05:01:06;;;;;;;22.92;15.75;;;9.10;68.20;;;;;;5027957;28;20504;-66
2022/03/13 05:03:33;;;;;;;22.55;16.50;;;9.10;68.40;;;;;;5027936;28;20074;-66
2022/03/13 05:05:59;;;;;;;22.88;15.48;;;9.10;68.00;;;;;;4988539;28;20025;-67
2022/03/13 05:08:25;;;;;;;20.30;15.52;;;9.10;67.90;;;;;;5027902;28;20073;-66
2022/03/13 05:10:51;;;;;;;21.77;15.68;;;9.10;68.00;;;;;;5027748;28;20017;-66
2022/03/13 05:13:18;;;;;;;20.70;15.07;;;9.00;67.50;;;;;;5028000;28;20078;-66
2022/03/13 05:15:45;;;;;;;20.08;15.00;;;9.00;67.90;;;;;;5027774;28;20388;-66
2022/03/13 05:18:12;;;;;;;21.35;14.57;;;9.00;67.90;;;;;;5025255;28;20049;-66
2022/03/13 05:20:40;;;;;;;20.17;15.05;;;9.00;67.70;;;;;;5029808;28;20057;-67
2022/03/13 05:23:08;;;;;;;23.45;14.73;;;9.00;67.70;;;;;;5031776;28;20029;-66
2022/03/13 05:25:35;;;;;;;18.75;14.32;;;9.00;67.30;;;;;;5031625;28;20135;-66
2022/03/13 05:28:02;;;;;;;21.52;14.52;;;9.00;67.10;;;;;;5013456;28;20120;-66
2022/03/13 05:30:27;;;;;;;18.42;13.15;;;9.00;67.30;;;;;;5013722;28;20033;-66
2022/03/13 05:32:54;;;;;;;21.42;15.13;;;9.00;67.30;;;;;;5031344;28;20025;-66
2022/03/13 05:35:19;;;;;;;19.17;14.57;;;9.00;67.90;;;;;;5031448;28;20025;-66
2022/03/13 05:37:45;;;;;;;20.45;15.13;;;8.90;67.80;;;;;;5031465;28;20026;-66
2022/03/13 05:40:14;;;;;;;23.83;15.25;;;8.90;67.70;;;;;;5031266;28;20017;-66
2022/03/13 05:42:45;;;;;;;19.10;13.63;;;8.90;68.10;;;;;;5031351;28;20044;-66
2022/03/13 05:45:12;;;;;;;20.58;13.93;;;8.90;68.40;;;;;;5031331;28;20041;-66
2022/03/13 05:47:48;;;;;;;19.33;14.77;;;8.90;68.70;;;;;;5031304;28;20025;-66
2022/03/13 05:50:15;;;;;;;19.35;14.30;;;8.90;69.50;;;;;;5031386;28;20045;-67
2022/03/13 05:52:43;;;;;;;20.17;13.98;;;8.80;69.80;;;;;;5012928;28;20444;-66
2022/03/13 05:55:09;;;;;;;18.17;13.73;;;8.80;69.80;;;;;;5028414;28;20076;-66
2022/03/13 05:57:35;;;;;;;19.95;14.27;;;8.80;70.00;;;;;;5031113;28;20037;-66
2022/03/13 06:00:03;;;;;;;19.45;14.07;;;8.90;69.90;;;;;;5030899;28;20029;-66
2022/03/13 06:02:28;;;;;;;16.85;13.68;;;8.80;69.50;;;;;;5031295;28;20041;-67
2022/03/13 06:04:54;;;;;;;17.90;13.43;;;8.90;69.70;;;;;;5031027;28;20034;-66
2022/03/13 06:07:20;;;;;;;18.67;13.65;;;8.90;69.30;;;;;;5013060;28;20036;-66
2022/03/13 06:09:46;;;;;;;19.25;14.30;;;8.90;69.20;;;;;;5028226;28;20072;-67
2022/03/13 06:12:13;;;;;;;20.85;13.07;;;8.80;68.70;;;;;;5031144;28;20425;-66
2022/03/13 06:14:38;;;;;;;18.08;12.70;;;8.80;68.60;;;;;;5030930;28;20457;-67
2022/03/13 06:17:04;;;;;;;16.63;12.27;;;8.80;67.70;;;;;;5033290;28;20065;-66
2022/03/13 06:19:30;;;;;;;18.60;12.80;;;8.80;67.60;;;;;;5034554;28;20029;-66
2022/03/13 06:21:55;;;;;;;21.25;13.45;;;8.80;67.70;;;;;;5034469;28;20483;-66
2022/03/13 06:24:21;;;;;;;17.35;12.95;;;8.70;67.20;;;;;;5034479;28;20030;-66
2022/03/13 06:26:46;;;;;;;17.35;12.70;;;8.70;66.80;;;;;;5034488;28;20036;-66
2022/03/13 06:29:15;;;;;;;18.00;12.40;;;8.70;66.80;;;;;;5034413;28;20033;-66
2022/03/13 06:31:41;;;;;;;15.60;11.77;;;8.70;66.60;;;;;;5032256;28;20032;-66
2022/03/13 06:34:07;;;;;;;16.95;11.80;;;8.70;66.60;;;;;;5033525;28;20021;-66
2022/03/13 06:36:34;;;;;;;17.83;11.98;;;8.60;66.70;;;;;;5033505;28;20028;-66
2022/03/13 06:39:00;;;;;;;17.75;12.77;;;8.60;66.50;;;;;;5033820;28;20029;-66
2022/03/13 06:41:26;;;;;;;17.05;12.35;;;8.60;66.60;;;;;;5034296;28;20381;-66
2022/03/13 06:43:53;;;;;;;16.52;11.27;;;8.70;67.30;;;;;;5034130;28;20495;-66
2022/03/13 06:46:18;;;;;;;16.08;12.38;;;8.60;67.40;;;;;;5034431;28;20030;-66
2022/03/13 06:48:44;;;;;;;20.92;12.73;;;8.60;67.70;;;;;;5034034;28;20039;-66
2022/03/13 06:51:09;;;;;;;16.23;12.25;;;8.60;67.70;;;;;;5033540;28;20436;-66
2022/03/13 06:53:35;;;;;;;15.80;11.73;;;8.50;67.30;;;;;;5015999;28;20049;-66
2022/03/13 06:56:01;;;;;;;17.15;12.52;;;8.50;67.50;;;;;;5034157;28;20432;-66
2022/03/13 06:58:27;;;;;;;20.17;12.38;;;8.50;67.50;;;;;;5033998;28;20480;-66
2022/03/13 07:00:53;;;;;;;16.65;12.65;;;8.50;67.40;;;;;;5033885;28;20036;-66
2022/03/13 07:03:19;;;;;;;17.73;12.25;;;8.50;67.40;;;;;;5033828;28;20373;-66
2022/03/13 07:05:44;;;;;;;17.85;12.32;;;8.50;67.10;;;;;;5033835;28;20036;-67
2022/03/13 07:08:10;;;;;;;17.27;11.77;;;8.50;66.90;;;;;;5032973;28;20026;-67
2022/03/13 07:10:35;;;;;;;17.17;12.48;;;8.50;67.10;;;;;;5016043;28;20025;-66
2022/03/13 07:13:01;;;;;;;17.70;12.38;;;8.50;66.90;;;;;;5033738;28;20026;-67
2022/03/13 07:15:27;;;;;;;17.40;11.35;;;8.50;66.00;;;;;;5033454;28;20071;-66
2022/03/13 07:17:53;;;;;;;17.38;12.23;;;8.50;66.50;;;;;;5033005;28;20033;-66
2022/03/13 07:20:19;;;;;;;15.32;12.07;;;8.50;66.10;;;;;;5031742;28;20040;-67
2022/03/13 07:22:46;;;;;;;15.43;11.38;;;8.40;66.10;;;;;;5032207;28;20034;-67
2022/03/13 07:25:15;;;;;;;16.33;11.52;;;8.50;65.90;;;;;;5033450;28;20025;-66
2022/03/13 07:27:42;;;;;;;15.98;11.48;;;8.50;65.10;;;;;;5031531;28;20432;-66
2022/03/13 07:30:14;;;;;;;15.80;11.50;;;8.50;64.70;;;;;;5024670;28;20473;-66
2022/03/13 07:32:40;;;;;;;18.95;11.52;;;8.50;64.40;;;;;;5031715;28;20405;-67
2022/03/13 07:35:10;;;;;;;16.38;10.77;;;8.50;63.90;;;;;;5031563;28;20017;-66
2022/03/13 07:37:35;;;;;;;21.33;10.98;;;8.50;64.20;;;;;;5031487;28;20025;-67
2022/03/13 07:40:02;;;;;;;17.10;10.73;;;8.50;63.90;;;;;;5031611;28;20037;-67
2022/03/13 07:42:28;;;;;;;15.57;10.85;;;8.60;63.70;;;;;;5028391;28;20411;-67
2022/03/13 07:44:53;;;;;;;17.30;12.23;;;8.60;63.90;;;;;;5030361;28;20038;-67
2022/03/13 07:47:19;;;;;;;16.42;11.38;;;8.60;63.90;;;;;;5022966;28;20060;-67
2022/03/13 07:49:45;;;;;;;16.50;11.57;;;8.60;63.30;;;;;;5030686;28;20030;-67
2022/03/13 07:52:11;;;;;;;14.13;10.32;;;8.60;63.60;;;;;;5031334;28;20037;-67
2022/03/13 07:54:36;;;;;;;15.95;11.13;;;8.60;63.20;;;;;;5031200;28;20041;-66
2022/03/13 07:57:02;;;;;;;20.13;11.50;;;8.70;63.10;;;;;;5031124;28;20388;-66
2022/03/13 07:59:28;;;;;;;16.67;11.32;;;8.70;62.60;;;;;;5031281;28;20105;-66
2022/03/13 08:01:53;;;;;;;15.35;12.02;;;8.70;62.20;;;;;;5013758;28;20036;-67
2022/03/13 08:04:19;;;;;;;16.38;11.52;;;8.80;62.80;;;;;;5031596;28;20048;-66
2022/03/13 08:06:45;;;;;;;19.42;12.13;;;8.80;62.10;;;;;;5031102;28;20022;-67
2022/03/13 08:09:10;;;;;;;17.42;11.23;;;8.80;62.30;;;;;;5030947;28;20067;-67
2022/03/13 08:11:36;;;;;;;19.60;11.55;;;8.80;62.20;;;;;;5030972;28;20030;-67
2022/03/13 08:14:07;;;;;;;17.98;11.50;;;8.80;61.90;;;;;;5030801;28;20049;-67
2022/03/13 08:16:32;;;;;;;15.00;10.07;;;8.80;61.50;;;;;;5030735;28;20014;-67
2022/03/13 08:18:58;;;;;;;16.55;9.90;;;8.90;61.40;;;;;;5030877;28;20025;-67
2022/03/13 08:21:23;;;;;;;16.05;11.63;;;9.00;61.30;;;;;;5010022;28;20036;-67
2022/03/13 08:23:49;;;;;;;14.20;9.77;;;9.00;60.80;;;;;;5030939;28;20032;-66
2022/03/13 08:26:14;;;;;;;17.30;11.85;;;9.10;60.40;;;;;;5030814;28;20082;-67
2022/03/13 08:28:44;;;;;;;14.27;10.52;;;9.10;60.10;;;;;;5030443;28;20104;-67
2022/03/13 08:31:10;;;;;;;16.70;11.27;;;9.10;59.70;;;;;;5030514;28;20385;-67
2022/03/13 08:33:36;;;;;;;15.32;11.77;;;9.10;59.30;;;;;;5030599;28;20389;-67
2022/03/13 08:36:02;;;;;;;16.75;10.93;;;9.10;59.70;;;;;;5031956;28;20024;-66
2022/03/13 08:38:28;;;;;;;16.52;10.93;;;9.10;59.50;;;;;;5032181;28;20469;-67
2022/03/13 08:40:54;;;;;;;16.30;11.30;;;9.10;59.50;;;;;;5030488;28;20030;-67
2022/03/13 08:43:19;;;;;;;18.70;11.85;;;9.10;59.40;;;;;;5030566;28;20381;-67
2022/03/13 08:45:45;;;;;;;17.27;11.20;;;9.20;58.80;;;;;;5026294;28;20112;-67
2022/03/13 08:48:13;;;;;;;14.43;11.02;;;9.30;58.90;;;;;;5030155;28;20477;-67
2022/03/13 08:50:38;;;;;;;14.68;10.55;;;9.30;58.50;;;;;;5030409;28;20101;-67
2022/03/13 08:53:04;;;;;;;14.48;10.73;;;9.40;58.40;;;;;;5024462;28;20124;-66
2022/03/13 08:55:29;;;;;;;14.00;9.35;;;9.40;58.70;;;;;;5029396;28;20036;-67
2022/03/13 08:57:55;;;;;;;13.77;9.88;;;9.50;58.90;;;;;;5031414;28;20358;-67
2022/03/13 09:00:21;;;;;;;15.23;10.80;;;9.60;58.90;;;;;;5014265;28;20056;-67
2022/03/13 09:02:47;;;;;;;15.80;12.27;;;9.70;58.50;;;;;;5031953;28;20025;-67
2022/03/13 09:05:13;;;;;;;12.75;9.30;;;9.80;57.80;;;;;;5031926;28;20112;-66
2022/03/13 09:07:38;;;;;;;15.38;11.20;;;9.90;57.90;;;;;;5031830;28;20108;-67
2022/03/13 09:10:07;;;;;;;15.75;11.95;;;10.10;57.80;;;;;;5030403;28;20594;-67
2022/03/13 09:12:33;;;;;;;19.10;12.43;;;10.20;57.10;;;;;;5030039;28;20029;-67
2022/03/13 09:15:00;;;;;;;18.70;11.20;;;10.30;56.70;;;;;;5030255;28;20028;-67
2022/03/13 09:17:25;;;;;;;18.25;11.27;;;10.40;56.50;;;;;;5012531;28;20459;-67
2022/03/13 09:19:51;;;;;;;17.40;11.55;;;10.60;56.10;;;;;;5029823;28;20481;-67
2022/03/13 09:22:18;;;;;;;15.55;10.90;;;10.80;55.70;;;;;;5030227;28;20108;-66
2022/03/13 09:24:47;;;;;;;15.60;11.15;;;10.90;55.10;;;;;;5030117;28;20358;-67
2022/03/13 09:27:13;;;;;;;16.30;11.93;;;11.00;55.10;;;;;;5017686;28;20358;-67
2022/03/13 09:29:39;;;;;;;14.98;11.85;;;11.20;54.60;;;;;;5029913;28;20086;-67
2022/03/13 09:32:06;;;;;;;15.88;11.00;;;11.30;55.10;;;;;;5030196;28;20103;-67
2022/03/13 09:34:32;;;;;;;17.38;12.30;;;11.60;55.10;;;;;;5030010;28;20018;-67
2022/03/13 09:36:59;;;;;;;20.58;13.23;;;11.80;54.40;;;;;;5030112;28;20025;-67
2022/03/13 09:39:25;;;;;;;17.13;11.98;;;11.90;53.80;;;;;;5004265;28;20021;-66
2022/03/13 09:41:51;;;;;;;16.33;12.07;;;12.00;53.90;;;;;;5029726;28;20036;-66
2022/03/13 09:44:17;;;;;;;16.58;12.30;;;12.20;54.10;;;;;;5030033;28;20080;-67
2022/03/13 09:46:42;;;;;;;18.77;12.88;;;12.30;54.10;;;;;;5029860;28;20482;-67
2022/03/13 09:49:08;;;;;;;15.98;12.20;;;12.30;53.90;;;;;;5031501;28;20032;-67
2022/03/13 09:51:34;;;;;;;16.55;12.70;;;12.50;55.00;;;;;;5013757;28;20036;-66
2022/03/13 09:54:01;;;;;;;20.10;14.02;;;12.60;53.90;;;;;;5031500;28;20049;-66
2022/03/13 09:56:26;;;;;;;18.75;13.15;;;12.70;54.70;;;;;;5031382;28;20067;-66
2022/03/13 09:58:52;;;;;;;17.95;13.05;;;12.80;52.80;;;;;;5031234;28;20029;-66
2022/03/13 10:01:17;;;;;;;17.52;12.95;;;12.70;53.40;;;;;;5016629;28;20109;-66
2022/03/13 10:03:43;;;;;;;21.08;13.45;;;12.70;53.50;;;;;;5017257;28;20441;-67
2022/03/13 10:06:09;;;;;;;19.27;13.65;;;12.80;52.60;;;;;;5024093;28;20032;-67
2022/03/13 10:08:35;;;;;;;17.52;13.50;;;12.80;52.90;;;;;;5033698;28;20087;-67
2022/03/13 10:11:03;;;;;;;18.15;13.20;;;12.80;53.10;;;;;;5033036;28;20025;-66
2022/03/13 10:13:46;;;;;;;19.40;13.13;;;12.90;52.90;;;;;;5034464;28;20022;-67
2022/03/13 10:16:36;;;;;;;16.02;13.20;;;13.10;52.60;;;;;;5034792;28;20032;-67
2022/03/13 10:19:15;;;;;;;18.73;14.85;;;13.30;52.40;;;;;;5034855;28;20029;-66
2022/03/13 10:22:04;;;;;;;19.05;13.25;;;13.50;53.60;;;;;;5034382;28;20025;-67
2022/03/13 10:24:41;;;;;;;16.20;12.90;;;13.70;52.40;;;;;;5034533;28;20436;-66
2022/03/13 10:27:15;;;;;;;19.55;13.98;;;13.90;52.40;;;;;;5034410;28;20055;-67
2022/03/13 10:29:42;;;;;;;20.02;14.40;;;14.00;51.40;;;;;;5034413;28;20026;-67
2022/03/13 10:32:08;;;;;;;17.13;12.63;;;14.10;51.40;;;;;;5016481;28;20444;-67
2022/03/13 10:34:35;;;;;;;18.17;13.40;;;14.30;50.80;;;;;;5034536;28;20048;-66
2022/03/13 10:37:02;;;;;;;18.02;13.23;;;14.50;51.10;;;;;;5034354;28;20026;-67
2022/03/13 10:39:28;;;;;;;17.25;13.43;;;14.70;49.30;;;;;;5034379;28;20041;-66
2022/03/13 10:41:59;;;;;;;17.50;12.65;;;15.00;50.00;;;;;;5034022;28;20029;-67
2022/03/13 10:44:25;;;;;;;16.92;12.48;;;15.20;50.00;;;;;;5034290;28;20100;-67
2022/03/13 10:46:58;;;;;;;15.25;12.68;;;16.20;49.60;;;;;;5034267;28;20030;-67
2022/03/13 10:49:36;;;;;;;17.40;13.60;;;17.60;46.50;;;;;;5034288;28;20083;-67
2022/03/13 10:52:16;;;;;;;16.38;13.45;;;18.60;44.70;;;;;;5034043;28;20021;-67
2022/03/13 10:54:46;;;;;;;18.50;14.70;;;19.60;42.40;;;;;;5034011;28;20390;-67
2022/03/13 10:57:12;;;;;;;16.88;12.23;;;20.00;41.70;;;;;;5033882;28;20052;-68
2022/03/13 10:59:40;;;;;;;15.02;12.20;;;20.70;42.40;;;;;;5032527;28;20575;-67
2022/03/13 11:02:21;;;;;;;14.73;12.43;;;22.00;39.50;;;;;;5030438;28;20020;-67
2022/03/13 11:04:57;;;;;;;14.43;12.35;;;23.00;37.90;;;;;;5032736;28;20033;-66
2022/03/13 11:07:26;;;;;;;16.63;13.30;;;23.10;37.60;;;;;;5032519;28;20048;-66
2022/03/13 11:09:55;;;;;;;13.73;11.27;;;23.10;35.90;;;;;;4996917;28;20108;-66
2022/03/13 11:12:21;;;;;;;13.18;11.73;;;24.10;36.60;;;;;;5032724;28;20117;-66
2022/03/13 11:14:53;;;;;;;15.98;13.25;;;25.20;34.00;;;;;;5032885;28;20463;-66
2022/03/13 11:17:20;;;;;;;13.48;12.07;;;26.00;33.90;;;;;;5029505;28;20365;-67
2022/03/13 11:19:51;;;;;;;11.95;10.68;;;26.80;32.50;;;;;;5032553;28;20028;-67
2022/03/13 11:22:20;;;;;;;14.38;12.73;;;28.20;32.90;;;;;;5031832;28;20096;-67
2022/03/13 11:24:46;;;;;;;16.13;12.70;;;29.30;30.10;;;;;;5032354;28;20454;-67
2022/03/13 11:27:13;;;;;;;13.15;11.77;;;28.40;30.00;;;;;;5031834;28;20053;-67
2022/03/13 11:29:44;;;;;;;13.68;12.27;;;27.80;31.00;;;;;;5032161;28;20024;-67
2022/03/13 11:32:46;;;;;;;14.68;11.80;;;28.00;30.60;;;;;;5032113;28;20513;-67
2022/03/13 11:35:18;;;;;;;12.15;10.63;;;27.80;30.70;;;;;;5032694;28;20493;-67
2022/03/13 11:37:45;;;;;;;13.13;11.82;;;27.80;31.10;;;;;;5032405;28;20029;-68
2022/03/13 11:40:12;;;;;;;12.20;10.75;;;27.70;31.10;;;;;;5030730;28;20091;-67
2022/03/13 11:42:54;;;;;;;12.55;11.35;;;27.90;30.90;;;;;;5030645;28;20033;-67
2022/03/13 11:45:30;;;;;;;12.35;11.05;;;28.00;31.00;;;;;;5030738;28;20088;-68
2022/03/13 11:48:19;;;;;;;10.13;9.13;;;28.50;30.80;;;;;;5029976;28;20037;-67
2022/03/13 11:50:54;;;;;;;12.13;10.93;;;29.30;30.20;;;;;;5020272;28;20041;-67
2022/03/13 11:53:24;;;;;;;12.25;10.88;;;28.70;29.60;;;;;;5031655;28;20037;-67
2022/03/13 11:56:10;;;;;;;11.65;10.48;;;27.30;31.20;;;;;;5031423;28;20690;-67
2022/03/13 11:58:47;;;;;;;12.48;11.18;;;27.10;32.00;;;;;;5032711;28;20033;-67
2022/03/13 12:01:21;;;;;;;12.90;11.25;;;27.20;31.10;;;;;;5032805;28;20120;-67
2022/03/13 12:04:21;;;;;;;9.85;8.85;;;26.90;31.40;;;;;;5031117;28;20026;-68
2022/03/13 12:06:56;;;;;;;10.82;9.30;;;27.50;32.40;;;;;;5024150;28;20037;-68
2022/03/13 12:09:45;;;;;;;11.23;10.13;;;28.70;30.40;;;;;;5029827;28;20469;-68
2022/03/13 12:12:15;;;;;;;9.80;8.88;;;28.10;30.70;;;;;;5029375;28;20025;-68
2022/03/13 12:14:59;;;;;;;10.70;9.60;;;27.80;31.50;;;;;;5030668;28;20432;-68
2022/03/13 12:17:27;;;;;;;11.85;8.70;;;27.70;31.40;;;;;;5030892;28;20017;-68
2022/03/13 12:19:55;;;;;;;9.25;7.72;;;27.80;31.40;;;;;;5030774;28;20100;-68
2022/03/13 12:22:24;;;;;;;9.60;8.52;;;27.80;30.90;;;;;;5030512;28;20505;-69
2022/03/13 12:24:52;;;;;;;10.68;9.65;;;27.90;30.90;;;;;;5030658;28;20466;-68
2022/03/13 12:27:19;;;;;;;9.40;8.50;;;27.50;31.50;;;;;;5032198;28;20033;-68
2022/03/13 12:29:49;;;;;;;9.30;8.10;;;26.60;31.50;;;;;;5030951;28;20430;-67
2022/03/13 12:32:15;;;;;;;11.18;9.93;;;26.40;33.20;;;;;;5032456;28;20085;-67
2022/03/13 12:34:41;;;;;;;10.70;9.60;;;26.50;31.90;;;;;;5014487;28;20539;-67
2022/03/13 12:37:09;;;;;;;9.80;8.90;;;26.60;32.40;;;;;;5032158;28;20017;-67